sensor_id;sensor_type;location;lat;lon;timestamp;P1;durP1;ratioP1;P2;durP2;ratioP2
1014;SDS011;8170;48.118;11.628;2022-11-25T00:01:02;6.78;;;4.28;;
1014;SDS011;8170;48.118;11.628;2022-11-25T00:02:06;5.93;;;3.40;;
1014;SDS011;8170;48.118;11.628;2022-11-25T00:03:09;4.70;;;3.75;;
1014;SDS011;8170;48.118;11.628;2022-11-25T00:04:11;3.80;;;3.22;;
1014;SDS011;8170;48.118;11.628;2022-11-25T00:05:15;3.20;;;2.80;;
1014;SDS011;8170;48.118;11.628;2022-11-25T00:06:19;4.40;;;3.20;;
1014;SDS011;8170;48.118;11.628;2022-11-25T00:07:22;4.22;;;3.00;;
1014;SDS011;8170;48.118;11.628;2022-11-25T00:08:24;3.72;;;2.90;;
1014;SDS011;8170;48.118;11.628;2022-11-25T00:09:27;4.85;;;3.00;;
1014;SDS011;8170;48.118;11.628;2022-11-25T00:10:30;4.20;;;3.38;;
1014;SDS011;8170;48.118;11.628;2022-11-25T00:11:33;4.22;;;2.53;;
1014;SDS011;8170;48.118;11.628;2022-11-25T00:12:37;6.22;;;4.15;;
1014;SDS011;8170;48.118;11.628;2022-11-25T00:13:39;8.57;;;6.18;;
1014;SDS011;8170;48.118;11.628;2022-11-25T00:14:45;9.10;;;6.38;;
1014;SDS011;8170;48.118;11.628;2022-11-25T00:15:46;11.50;;;6.40;;
1014;SDS011;8170;48.118;11.628;2022-11-25T00:16:50;10.40;;;6.88;;
1014;SDS011;8170;48.118;11.628;2022-11-25T00:17:53;8.55;;;6.13;;
1014;SDS011;8170;48.118;11.628;2022-11-25T00:18:55;10.23;;;6.13;;
1014;SDS011;8170;48.118;11.628;2022-11-25T00:19:59;8.02;;;5.93;;
1014;SDS011;8170;48.118;11.628;2022-11-25T00:21:06;6.47;;;5.15;;
1014;SDS011;8170;48.118;11.628;2022-11-25T00:22:09;4.65;;;3.80;;
1014;SDS011;8170;48.118;11.628;2022-11-25T00:23:12;5.78;;;4.55;;
1014;SDS011;8170;48.118;11.628;2022-11-25T00:24:14;5.00;;;3.97;;
1014;SDS011;8170;48.118;11.628;2022-11-25T00:25:18;4.53;;;3.20;;
1014;SDS011;8170;48.118;11.628;2022-11-25T00:26:21;7.15;;;4.30;;
1014;SDS011;8170;48.118;11.628;2022-11-25T00:27:24;8.13;;;5.30;;
1014;SDS011;8170;48.118;11.628;2022-11-25T00:28:26;4.10;;;3.13;;
1014;SDS011;8170;48.118;11.628;2022-11-25T00:29:29;5.45;;;3.50;;
1014;SDS011;8170;48.118;11.628;2022-11-25T00:30:34;4.10;;;3.05;;
1014;SDS011;8170;48.118;11.628;2022-11-25T00:31:37;4.38;;;2.70;;
1014;SDS011;8170;48.118;11.628;2022-11-25T00:32:41;3.80;;;2.97;;
1014;SDS011;8170;48.118;11.628;2022-11-25T00:33:44;5.97;;;3.90;;
1014;SDS011;8170;48.118;11.628;2022-11-25T00:34:47;13.70;;;8.52;;
1014;SDS011;8170;48.118;11.628;2022-11-25T00:35:49;13.60;;;8.93;;
1014;SDS011;8170;48.118;11.628;2022-11-25T00:36:52;15.20;;;7.97;;
1014;SDS011;8170;48.118;11.628;2022-11-25T00:37:56;15.70;;;10.15;;
1014;SDS011;8170;48.118;11.628;2022-11-25T00:38:59;15.98;;;9.98;;
1014;SDS011;8170;48.118;11.628;2022-11-25T00:40:03;17.20;;;12.30;;
1014;SDS011;8170;48.118;11.628;2022-11-25T00:41:06;16.05;;;10.35;;
1014;SDS011;8170;48.118;11.628;2022-11-25T00:42:27;17.15;;;10.25;;
1014;SDS011;8170;48.118;11.628;2022-11-25T00:43:47;18.95;;;11.10;;
1014;SDS011;8170;48.118;11.628;2022-11-25T00:45:08;16.48;;;10.27;;
1014;SDS011;8170;48.118;11.628;2022-11-25T00:46:13;13.20;;;7.90;;
1014;SDS011;8170;48.118;11.628;2022-11-25T00:47:15;12.60;;;7.35;;
1014;SDS011;8170;48.118;11.628;2022-11-25T00:48:19;9.63;;;6.60;;
1014;SDS011;8170;48.118;11.628;2022-11-25T00:49:22;9.10;;;5.90;;
1014;SDS011;8170;48.118;11.628;2022-11-25T00:50:25;7.47;;;4.35;;
1014;SDS011;8170;48.118;11.628;2022-11-25T00:51:28;7.97;;;4.93;;
1014;SDS011;8170;48.118;11.628;2022-11-25T00:52:30;6.57;;;3.97;;
1014;SDS011;8170;48.118;11.628;2022-11-25T00:53:37;5.70;;;3.78;;
1014;SDS011;8170;48.118;11.628;2022-11-25T00:54:39;9.60;;;3.72;;
1014;SDS011;8170;48.118;11.628;2022-11-25T00:55:42;5.40;;;3.03;;
1014;SDS011;8170;48.118;11.628;2022-11-25T00:57:02;3.75;;;2.30;;
1014;SDS011;8170;48.118;11.628;2022-11-25T00:58:06;4.05;;;2.95;;
1014;SDS011;8170;48.118;11.628;2022-11-25T00:59:08;5.30;;;2.83;;
1014;SDS011;8170;48.118;11.628;2022-11-25T01:00:12;3.63;;;2.33;;
1014;SDS011;8170;48.118;11.628;2022-11-25T01:01:16;3.70;;;2.90;;
1014;SDS011;8170;48.118;11.628;2022-11-25T01:02:19;3.53;;;2.20;;
1014;SDS011;8170;48.118;11.628;2022-11-25T01:03:22;2.90;;;2.20;;
1014;SDS011;8170;48.118;11.628;2022-11-25T01:04:26;6.85;;;3.50;;
1014;SDS011;8170;48.118;11.628;2022-11-25T01:05:28;7.22;;;4.22;;
1014;SDS011;8170;48.118;11.628;2022-11-25T01:06:31;9.48;;;5.43;;
1014;SDS011;8170;48.118;11.628;2022-11-25T01:07:33;6.68;;;4.80;;
1014;SDS011;8170;48.118;11.628;2022-11-25T01:08:36;6.47;;;4.05;;
1014;SDS011;8170;48.118;11.628;2022-11-25T01:09:39;8.38;;;4.78;;
1014;SDS011;8170;48.118;11.628;2022-11-25T01:10:42;11.50;;;6.53;;
1014;SDS011;8170;48.118;11.628;2022-11-25T01:11:44;9.23;;;5.40;;
1014;SDS011;8170;48.118;11.628;2022-11-25T01:12:47;10.15;;;4.97;;
1014;SDS011;8170;48.118;11.628;2022-11-25T01:13:50;8.43;;;5.55;;
1014;SDS011;8170;48.118;11.628;2022-11-25T01:15:01;6.43;;;4.70;;
1014;SDS011;8170;48.118;11.628;2022-11-25T01:16:04;7.72;;;4.20;;
1014;SDS011;8170;48.118;11.628;2022-11-25T01:17:09;7.63;;;5.18;;
1014;SDS011;8170;48.118;11.628;2022-11-25T01:18:12;9.20;;;6.18;;
1014;SDS011;8170;48.118;11.628;2022-11-25T01:19:15;9.38;;;5.85;;
1014;SDS011;8170;48.118;11.628;2022-11-25T01:20:18;9.95;;;6.00;;
1014;SDS011;8170;48.118;11.628;2022-11-25T01:21:21;11.00;;;5.70;;
1014;SDS011;8170;48.118;11.628;2022-11-25T01:22:25;9.60;;;6.25;;
1014;SDS011;8170;48.118;11.628;2022-11-25T01:23:27;9.60;;;6.18;;
1014;SDS011;8170;48.118;11.628;2022-11-25T01:24:31;11.40;;;5.95;;
1014;SDS011;8170;48.118;11.628;2022-11-25T01:25:35;11.80;;;6.88;;
1014;SDS011;8170;48.118;11.628;2022-11-25T01:26:37;6.07;;;3.88;;
1014;SDS011;8170;48.118;11.628;2022-11-25T01:27:40;3.30;;;2.40;;
1014;SDS011;8170;48.118;11.628;2022-11-25T01:28:43;2.72;;;2.15;;
1014;SDS011;8170;48.118;11.628;2022-11-25T01:29:47;3.63;;;2.42;;
1014;SDS011;8170;48.118;11.628;2022-11-25T01:30:57;4.50;;;2.80;;
1014;SDS011;8170;48.118;11.628;2022-11-25T01:32:00;5.03;;;3.20;;
1014;SDS011;8170;48.118;11.628;2022-11-25T01:33:04;4.35;;;3.20;;
1014;SDS011;8170;48.118;11.628;2022-11-25T01:34:07;5.63;;;3.50;;
1014;SDS011;8170;48.118;11.628;2022-11-25T01:35:14;6.07;;;2.80;;
1014;SDS011;8170;48.118;11.628;2022-11-25T01:36:16;4.30;;;2.65;;
1014;SDS011;8170;48.118;11.628;2022-11-25T01:37:20;3.35;;;1.92;;
1014;SDS011;8170;48.118;11.628;2022-11-25T01:38:22;4.25;;;2.50;;
1014;SDS011;8170;48.118;11.628;2022-11-25T01:39:25;5.40;;;2.58;;
1014;SDS011;8170;48.118;11.628;2022-11-25T01:40:34;5.45;;;1.75;;
1014;SDS011;8170;48.118;11.628;2022-11-25T01:41:37;2.47;;;1.50;;
1014;SDS011;8170;48.118;11.628;2022-11-25T01:42:41;4.45;;;1.83;;
1014;SDS011;8170;48.118;11.628;2022-11-25T01:46:39;3.75;;;1.80;;
1014;SDS011;8170;48.118;11.628;2022-11-25T01:47:56;2.25;;;1.33;;
1014;SDS011;8170;48.118;11.628;2022-11-25T01:49:04;3.08;;;1.70;;
1014;SDS011;8170;48.118;11.628;2022-11-25T01:50:09;2.13;;;1.60;;
1014;SDS011;8170;48.118;11.628;2022-11-25T01:51:16;2.47;;;1.50;;
1014;SDS011;8170;48.118;11.628;2022-11-25T01:52:22;2.65;;;1.63;;
1014;SDS011;8170;48.118;11.628;2022-11-25T01:53:29;2.80;;;2.20;;
1014;SDS011;8170;48.118;11.628;2022-11-25T01:54:34;2.88;;;2.03;;
1014;SDS011;8170;48.118;11.628;2022-11-25T01:55:44;2.78;;;1.45;;
1014;SDS011;8170;48.118;11.628;2022-11-25T01:56:51;2.65;;;1.70;;
1014;SDS011;8170;48.118;11.628;2022-11-25T01:57:58;2.25;;;1.48;;
1014;SDS011;8170;48.118;11.628;2022-11-25T01:59:04;1.52;;;1.30;;
1014;SDS011;8170;48.118;11.628;2022-11-25T02:00:09;2.20;;;1.65;;
1014;SDS011;8170;48.118;11.628;2022-11-25T02:01:18;3.38;;;1.50;;
1014;SDS011;8170;48.118;11.628;2022-11-25T02:02:22;2.60;;;1.63;;
1014;SDS011;8170;48.118;11.628;2022-11-25T02:03:25;2.47;;;1.85;;
1014;SDS011;8170;48.118;11.628;2022-11-25T02:04:32;3.80;;;1.90;;
1014;SDS011;8170;48.118;11.628;2022-11-25T02:05:40;4.47;;;2.55;;
1014;SDS011;8170;48.118;11.628;2022-11-25T02:06:51;1.63;;;1.20;;
1014;SDS011;8170;48.118;11.628;2022-11-25T02:07:57;2.05;;;1.38;;
1014;SDS011;8170;48.118;11.628;2022-11-25T02:09:02;2.83;;;1.67;;
1014;SDS011;8170;48.118;11.628;2022-11-25T02:10:06;1.92;;;1.40;;
1014;SDS011;8170;48.118;11.628;2022-11-25T02:11:15;2.53;;;1.60;;
1014;SDS011;8170;48.118;11.628;2022-11-25T02:12:19;1.85;;;1.50;;
1014;SDS011;8170;48.118;11.628;2022-11-25T02:13:24;2.10;;;1.20;;
1014;SDS011;8170;48.118;11.628;2022-11-25T02:14:26;1.60;;;1.20;;
1014;SDS011;8170;48.118;11.628;2022-11-25T02:15:30;2.50;;;1.38;;
1014;SDS011;8170;48.118;11.628;2022-11-25T02:16:37;2.88;;;1.75;;
1014;SDS011;8170;48.118;11.628;2022-11-25T02:17:42;3.45;;;2.00;;
1014;SDS011;8170;48.118;11.628;2022-11-25T02:18:45;2.20;;;1.55;;
1014;SDS011;8170;48.118;11.628;2022-11-25T02:19:53;1.58;;;1.30;;
1014;SDS011;8170;48.118;11.628;2022-11-25T02:21:02;2.72;;;1.80;;
1014;SDS011;8170;48.118;11.628;2022-11-25T02:22:05;1.92;;;1.60;;
1014;SDS011;8170;48.118;11.628;2022-11-25T02:23:17;3.15;;;1.60;;
1014;SDS011;8170;48.118;11.628;2022-11-25T02:24:29;2.38;;;1.80;;
1014;SDS011;8170;48.118;11.628;2022-11-25T02:25:39;2.22;;;1.40;;
1014;SDS011;8170;48.118;11.628;2022-11-25T02:26:46;3.05;;;1.30;;
1014;SDS011;8170;48.118;11.628;2022-11-25T02:27:50;1.98;;;1.67;;
1014;SDS011;8170;48.118;11.628;2022-11-25T02:28:55;2.00;;;1.58;;
1014;SDS011;8170;48.118;11.628;2022-11-25T02:29:57;5.20;;;1.67;;
1014;SDS011;8170;48.118;11.628;2022-11-25T02:31:01;2.53;;;1.60;;
1014;SDS011;8170;48.118;11.628;2022-11-25T02:32:04;2.05;;;1.52;;
1014;SDS011;8170;48.118;11.628;2022-11-25T02:33:06;2.47;;;1.85;;
1014;SDS011;8170;48.118;11.628;2022-11-25T02:34:10;1.85;;;1.13;;
1014;SDS011;8170;48.118;11.628;2022-11-25T02:35:25;2.65;;;1.67;;
1014;SDS011;8170;48.118;11.628;2022-11-25T02:36:29;1.58;;;1.17;;
1014;SDS011;8170;48.118;11.628;2022-11-25T02:37:32;3.05;;;2.00;;
1014;SDS011;8170;48.118;11.628;2022-11-25T02:38:36;2.90;;;1.70;;
1014;SDS011;8170;48.118;11.628;2022-11-25T02:39:42;1.85;;;1.50;;
1014;SDS011;8170;48.118;11.628;2022-11-25T02:40:50;1.48;;;1.30;;
1014;SDS011;8170;48.118;11.628;2022-11-25T02:41:57;2.78;;;1.70;;
1014;SDS011;8170;48.118;11.628;2022-11-25T02:43:01;3.08;;;1.70;;
1014;SDS011;8170;48.118;11.628;2022-11-25T02:44:04;3.13;;;1.60;;
1014;SDS011;8170;48.118;11.628;2022-11-25T02:45:07;3.42;;;1.55;;
1014;SDS011;8170;48.118;11.628;2022-11-25T02:46:15;2.47;;;1.40;;
1014;SDS011;8170;48.118;11.628;2022-11-25T02:47:22;1.92;;;1.52;;
1014;SDS011;8170;48.118;11.628;2022-11-25T02:48:26;1.50;;;1.13;;
1014;SDS011;8170;48.118;11.628;2022-11-25T02:49:50;2.55;;;1.92;;
1014;SDS011;8170;48.118;11.628;2022-11-25T02:50:55;3.88;;;1.52;;
1014;SDS011;8170;48.118;11.628;2022-11-25T02:51:57;1.90;;;1.52;;
1014;SDS011;8170;48.118;11.628;2022-11-25T02:53:01;3.65;;;1.48;;
1014;SDS011;8170;48.118;11.628;2022-11-25T02:54:04;1.70;;;1.25;;
1014;SDS011;8170;48.118;11.628;2022-11-25T02:55:08;2.67;;;1.50;;
1014;SDS011;8170;48.118;11.628;2022-11-25T02:56:12;1.80;;;1.20;;
1014;SDS011;8170;48.118;11.628;2022-11-25T02:57:15;2.78;;;1.85;;
1014;SDS011;8170;48.118;11.628;2022-11-25T02:58:18;2.70;;;1.75;;
1014;SDS011;8170;48.118;11.628;2022-11-25T02:59:21;2.05;;;1.55;;
1014;SDS011;8170;48.118;11.628;2022-11-25T03:00:23;1.88;;;1.25;;
1014;SDS011;8170;48.118;11.628;2022-11-25T03:01:28;1.83;;;1.60;;
1014;SDS011;8170;48.118;11.628;2022-11-25T03:02:32;4.47;;;1.85;;
1014;SDS011;8170;48.118;11.628;2022-11-25T03:03:35;1.48;;;1.20;;
1014;SDS011;8170;48.118;11.628;2022-11-25T03:04:40;1.65;;;1.40;;
1014;SDS011;8170;48.118;11.628;2022-11-25T03:05:43;1.67;;;1.30;;
1014;SDS011;8170;48.118;11.628;2022-11-25T03:06:45;1.90;;;1.33;;
1014;SDS011;8170;48.118;11.628;2022-11-25T03:07:48;1.60;;;1.10;;
1014;SDS011;8170;48.118;11.628;2022-11-25T03:08:53;2.03;;;1.48;;
1014;SDS011;8170;48.118;11.628;2022-11-25T03:09:57;2.08;;;1.50;;
1014;SDS011;8170;48.118;11.628;2022-11-25T03:10:59;4.32;;;1.90;;
1014;SDS011;8170;48.118;11.628;2022-11-25T03:12:04;1.95;;;1.63;;
1014;SDS011;8170;48.118;11.628;2022-11-25T03:13:26;2.03;;;1.50;;
1014;SDS011;8170;48.118;11.628;2022-11-25T03:14:29;1.42;;;1.25;;
1014;SDS011;8170;48.118;11.628;2022-11-25T03:15:32;2.85;;;1.92;;
1014;SDS011;8170;48.118;11.628;2022-11-25T03:16:35;1.95;;;1.40;;
1014;SDS011;8170;48.118;11.628;2022-11-25T03:17:38;2.17;;;1.55;;
1014;SDS011;8170;48.118;11.628;2022-11-25T03:18:43;2.85;;;1.58;;
1014;SDS011;8170;48.118;11.628;2022-11-25T03:19:45;3.42;;;1.92;;
1014;SDS011;8170;48.118;11.628;2022-11-25T03:20:50;2.80;;;1.58;;
1014;SDS011;8170;48.118;11.628;2022-11-25T03:21:52;2.47;;;2.08;;
1014;SDS011;8170;48.118;11.628;2022-11-25T03:22:56;2.40;;;1.52;;
1014;SDS011;8170;48.118;11.628;2022-11-25T03:23:58;2.40;;;1.55;;
1014;SDS011;8170;48.118;11.628;2022-11-25T03:25:01;1.80;;;1.50;;
1014;SDS011;8170;48.118;11.628;2022-11-25T03:26:04;1.80;;;1.42;;
1014;SDS011;8170;48.118;11.628;2022-11-25T03:27:10;2.10;;;1.70;;
1014;SDS011;8170;48.118;11.628;2022-11-25T03:28:12;1.83;;;1.30;;
1014;SDS011;8170;48.118;11.628;2022-11-25T03:29:16;1.60;;;1.50;;
1014;SDS011;8170;48.118;11.628;2022-11-25T03:30:19;2.30;;;1.80;;
1014;SDS011;8170;48.118;11.628;2022-11-25T03:31:25;2.00;;;1.50;;
1014;SDS011;8170;48.118;11.628;2022-11-25T03:32:27;2.05;;;1.30;;
1014;SDS011;8170;48.118;11.628;2022-11-25T03:33:31;1.77;;;1.50;;
1014;SDS011;8170;48.118;11.628;2022-11-25T03:34:33;2.22;;;1.70;;
1014;SDS011;8170;48.118;11.628;2022-11-25T03:35:37;2.83;;;1.75;;
1014;SDS011;8170;48.118;11.628;2022-11-25T03:36:39;2.20;;;1.83;;
1014;SDS011;8170;48.118;11.628;2022-11-25T03:37:43;1.55;;;1.30;;
1014;SDS011;8170;48.118;11.628;2022-11-25T03:38:45;4.53;;;1.55;;
1014;SDS011;8170;48.118;11.628;2022-11-25T03:39:49;1.63;;;1.33;;
1014;SDS011;8170;48.118;11.628;2022-11-25T03:40:51;5.88;;;1.83;;
1014;SDS011;8170;48.118;11.628;2022-11-25T03:41:54;2.92;;;2.03;;
1014;SDS011;8170;48.118;11.628;2022-11-25T03:42:58;2.40;;;1.60;;
1014;SDS011;8170;48.118;11.628;2022-11-25T03:44:01;2.35;;;1.77;;
1014;SDS011;8170;48.118;11.628;2022-11-25T03:45:04;2.58;;;1.80;;
1014;SDS011;8170;48.118;11.628;2022-11-25T03:46:08;2.40;;;1.55;;
1014;SDS011;8170;48.118;11.628;2022-11-25T03:47:10;1.92;;;1.50;;
1014;SDS011;8170;48.118;11.628;2022-11-25T03:48:13;1.70;;;1.20;;
1014;SDS011;8170;48.118;11.628;2022-11-25T03:49:16;1.83;;;1.67;;
1014;SDS011;8170;48.118;11.628;2022-11-25T03:50:19;2.33;;;1.65;;
1014;SDS011;8170;48.118;11.628;2022-11-25T03:51:22;1.98;;;1.77;;
1014;SDS011;8170;48.118;11.628;2022-11-25T03:52:26;2.40;;;1.60;;
1014;SDS011;8170;48.118;11.628;2022-11-25T03:53:30;2.10;;;1.90;;
1014;SDS011;8170;48.118;11.628;2022-11-25T03:54:34;2.60;;;1.80;;
1014;SDS011;8170;48.118;11.628;2022-11-25T03:55:49;2.20;;;1.90;;
1014;SDS011;8170;48.118;11.628;2022-11-25T03:56:54;1.60;;;1.50;;
1014;SDS011;8170;48.118;11.628;2022-11-25T03:57:58;2.75;;;1.60;;
1014;SDS011;8170;48.118;11.628;2022-11-25T03:59:00;3.08;;;1.70;;
1014;SDS011;8170;48.118;11.628;2022-11-25T04:00:04;4.43;;;1.92;;
1014;SDS011;8170;48.118;11.628;2022-11-25T04:01:18;3.55;;;1.90;;
1014;SDS011;8170;48.118;11.628;2022-11-25T04:02:21;1.88;;;1.48;;
1014;SDS011;8170;48.118;11.628;2022-11-25T04:03:24;1.70;;;1.20;;
1014;SDS011;8170;48.118;11.628;2022-11-25T04:04:27;1.70;;;1.50;;
1014;SDS011;8170;48.118;11.628;2022-11-25T04:05:29;1.58;;;1.30;;
1014;SDS011;8170;48.118;11.628;2022-11-25T04:06:36;2.22;;;2.03;;
1014;SDS011;8170;48.118;11.628;2022-11-25T04:07:39;3.67;;;1.70;;
1014;SDS011;8170;48.118;11.628;2022-11-25T04:08:42;2.97;;;1.80;;
1014;SDS011;8170;48.118;11.628;2022-11-25T04:09:45;3.28;;;1.50;;
1014;SDS011;8170;48.118;11.628;2022-11-25T04:10:51;2.60;;;1.80;;
1014;SDS011;8170;48.118;11.628;2022-11-25T04:11:57;2.05;;;1.38;;
1014;SDS011;8170;48.118;11.628;2022-11-25T04:13:26;2.92;;;2.45;;
1014;SDS011;8170;48.118;11.628;2022-11-25T04:14:30;2.60;;;2.40;;
1014;SDS011;8170;48.118;11.628;2022-11-25T04:15:33;3.17;;;2.00;;
1014;SDS011;8170;48.118;11.628;2022-11-25T04:16:36;3.22;;;2.30;;
1014;SDS011;8170;48.118;11.628;2022-11-25T04:17:39;3.05;;;2.30;;
1014;SDS011;8170;48.118;11.628;2022-11-25T04:18:42;3.03;;;2.40;;
1014;SDS011;8170;48.118;11.628;2022-11-25T04:19:44;2.88;;;2.15;;
1014;SDS011;8170;48.118;11.628;2022-11-25T04:20:47;2.30;;;2.10;;
1014;SDS011;8170;48.118;11.628;2022-11-25T04:21:50;3.13;;;2.10;;
1014;SDS011;8170;48.118;11.628;2022-11-25T04:22:53;3.58;;;2.10;;
1014;SDS011;8170;48.118;11.628;2022-11-25T04:23:56;3.00;;;2.30;;
1014;SDS011;8170;48.118;11.628;2022-11-25T04:24:59;1.95;;;1.83;;
1014;SDS011;8170;48.118;11.628;2022-11-25T04:26:02;3.40;;;1.80;;
1014;SDS011;8170;48.118;11.628;2022-11-25T04:27:12;3.45;;;2.10;;
1014;SDS011;8170;48.118;11.628;2022-11-25T04:28:15;1.88;;;1.45;;
1014;SDS011;8170;48.118;11.628;2022-11-25T04:29:20;3.80;;;2.10;;
1014;SDS011;8170;48.118;11.628;2022-11-25T04:30:23;2.15;;;1.45;;
1014;SDS011;8170;48.118;11.628;2022-11-25T04:31:27;3.30;;;2.20;;
1014;SDS011;8170;48.118;11.628;2022-11-25T04:32:29;2.03;;;1.65;;
1014;SDS011;8170;48.118;11.628;2022-11-25T04:33:32;2.75;;;2.08;;
1014;SDS011;8170;48.118;11.628;2022-11-25T04:34:34;2.97;;;1.73;;
1014;SDS011;8170;48.118;11.628;2022-11-25T04:35:38;2.10;;;1.90;;
1014;SDS011;8170;48.118;11.628;2022-11-25T04:36:42;2.47;;;1.80;;
1014;SDS011;8170;48.118;11.628;2022-11-25T04:37:45;2.75;;;1.60;;
1014;SDS011;8170;48.118;11.628;2022-11-25T04:38:48;4.13;;;1.90;;
1014;SDS011;8170;48.118;11.628;2022-11-25T04:39:51;2.72;;;2.33;;
1014;SDS011;8170;48.118;11.628;2022-11-25T04:40:53;1.83;;;1.58;;
1014;SDS011;8170;48.118;11.628;2022-11-25T04:41:57;2.00;;;1.65;;
1014;SDS011;8170;48.118;11.628;2022-11-25T04:43:14;2.08;;;1.70;;
1014;SDS011;8170;48.118;11.628;2022-11-25T04:44:25;2.45;;;1.83;;
1014;SDS011;8170;48.118;11.628;2022-11-25T04:45:27;2.20;;;1.90;;
1014;SDS011;8170;48.118;11.628;2022-11-25T04:46:51;2.10;;;1.73;;
1014;SDS011;8170;48.118;11.628;2022-11-25T04:47:54;2.85;;;2.15;;
1014;SDS011;8170;48.118;11.628;2022-11-25T04:48:57;2.50;;;2.00;;
1014;SDS011;8170;48.118;11.628;2022-11-25T04:49:59;3.50;;;1.90;;
1014;SDS011;8170;48.118;11.628;2022-11-25T04:51:04;2.30;;;2.10;;
1014;SDS011;8170;48.118;11.628;2022-11-25T04:52:06;2.17;;;1.70;;
1014;SDS011;8170;48.118;11.628;2022-11-25T04:53:10;1.98;;;1.65;;
1014;SDS011;8170;48.118;11.628;2022-11-25T04:54:13;3.25;;;1.90;;
1014;SDS011;8170;48.118;11.628;2022-11-25T04:55:18;3.50;;;2.03;;
1014;SDS011;8170;48.118;11.628;2022-11-25T04:56:21;2.67;;;2.17;;
1014;SDS011;8170;48.118;11.628;2022-11-25T04:57:26;2.65;;;2.00;;
1014;SDS011;8170;48.118;11.628;2022-11-25T04:58:28;3.90;;;2.58;;
1014;SDS011;8170;48.118;11.628;2022-11-25T04:59:58;2.30;;;2.08;;
1014;SDS011;8170;48.118;11.628;2022-11-25T05:01:02;2.95;;;1.70;;
1014;SDS011;8170;48.118;11.628;2022-11-25T05:02:05;2.70;;;2.10;;
1014;SDS011;8170;48.118;11.628;2022-11-25T05:03:11;3.08;;;2.35;;
1014;SDS011;8170;48.118;11.628;2022-11-25T05:04:14;2.40;;;2.20;;
1014;SDS011;8170;48.118;11.628;2022-11-25T05:05:17;3.80;;;2.35;;
1014;SDS011;8170;48.118;11.628;2022-11-25T05:06:20;4.80;;;2.45;;
1014;SDS011;8170;48.118;11.628;2022-11-25T05:07:23;2.90;;;2.40;;
1014;SDS011;8170;48.118;11.628;2022-11-25T05:08:30;3.22;;;2.28;;
1014;SDS011;8170;48.118;11.628;2022-11-25T05:09:32;2.90;;;1.80;;
1014;SDS011;8170;48.118;11.628;2022-11-25T05:10:41;3.53;;;2.28;;
1014;SDS011;8170;48.118;11.628;2022-11-25T05:11:43;3.22;;;1.90;;
1014;SDS011;8170;48.118;11.628;2022-11-25T05:12:46;2.10;;;1.83;;
1014;SDS011;8170;48.118;11.628;2022-11-25T05:13:51;3.00;;;2.20;;
1014;SDS011;8170;48.118;11.628;2022-11-25T05:14:55;2.85;;;1.95;;
1014;SDS011;8170;48.118;11.628;2022-11-25T05:15:59;2.00;;;1.80;;
1014;SDS011;8170;48.118;11.628;2022-11-25T05:17:02;2.55;;;2.20;;
1014;SDS011;8170;48.118;11.628;2022-11-25T05:18:04;2.15;;;1.95;;
1014;SDS011;8170;48.118;11.628;2022-11-25T05:19:16;2.97;;;1.95;;
1014;SDS011;8170;48.118;11.628;2022-11-25T05:20:18;1.83;;;1.63;;
1014;SDS011;8170;48.118;11.628;2022-11-25T05:21:22;1.80;;;1.50;;
1014;SDS011;8170;48.118;11.628;2022-11-25T05:22:24;2.50;;;1.48;;
1014;SDS011;8170;48.118;11.628;2022-11-25T05:23:29;2.45;;;2.00;;
1014;SDS011;8170;48.118;11.628;2022-11-25T05:24:32;3.22;;;2.00;;
1014;SDS011;8170;48.118;11.628;2022-11-25T05:25:36;4.43;;;2.90;;
1014;SDS011;8170;48.118;11.628;2022-11-25T05:26:57;3.70;;;2.47;;
1014;SDS011;8170;48.118;11.628;2022-11-25T05:28:00;2.72;;;2.38;;
1014;SDS011;8170;48.118;11.628;2022-11-25T05:29:03;3.85;;;2.67;;
1014;SDS011;8170;48.118;11.628;2022-11-25T05:30:08;2.60;;;2.30;;
1014;SDS011;8170;48.118;11.628;2022-11-25T05:31:12;3.38;;;2.40;;
1014;SDS011;8170;48.118;11.628;2022-11-25T05:32:17;3.60;;;2.10;;
1014;SDS011;8170;48.118;11.628;2022-11-25T05:33:19;3.60;;;2.35;;
1014;SDS011;8170;48.118;11.628;2022-11-25T05:34:22;3.20;;;2.20;;
1014;SDS011;8170;48.118;11.628;2022-11-25T05:35:25;4.22;;;2.75;;
1014;SDS011;8170;48.118;11.628;2022-11-25T05:36:29;2.67;;;2.28;;
1014;SDS011;8170;48.118;11.628;2022-11-25T05:37:32;2.70;;;2.00;;
1014;SDS011;8170;48.118;11.628;2022-11-25T05:38:38;3.15;;;2.03;;
1014;SDS011;8170;48.118;11.628;2022-11-25T05:39:44;3.05;;;2.28;;
1014;SDS011;8170;48.118;11.628;2022-11-25T05:40:58;2.65;;;2.25;;
1014;SDS011;8170;48.118;11.628;2022-11-25T05:42:03;2.85;;;2.28;;
1014;SDS011;8170;48.118;11.628;2022-11-25T05:43:06;2.50;;;2.00;;
1014;SDS011;8170;48.118;11.628;2022-11-25T05:44:11;2.65;;;1.83;;
1014;SDS011;8170;48.118;11.628;2022-11-25T05:45:23;2.20;;;2.00;;
1014;SDS011;8170;48.118;11.628;2022-11-25T05:46:26;2.25;;;1.98;;
1014;SDS011;8170;48.118;11.628;2022-11-25T05:47:30;3.97;;;1.95;;
1014;SDS011;8170;48.118;11.628;2022-11-25T05:48:33;2.42;;;2.15;;
1014;SDS011;8170;48.118;11.628;2022-11-25T05:49:36;3.08;;;1.90;;
1014;SDS011;8170;48.118;11.628;2022-11-25T05:50:41;2.00;;;1.73;;
1014;SDS011;8170;48.118;11.628;2022-11-25T05:51:55;3.08;;;2.70;;
1014;SDS011;8170;48.118;11.628;2022-11-25T05:53:00;8.40;;;6.20;;
1014;SDS011;8170;48.118;11.628;2022-11-25T05:54:02;7.43;;;5.18;;
1014;SDS011;8170;48.118;11.628;2022-11-25T05:55:08;6.25;;;4.35;;
1014;SDS011;8170;48.118;11.628;2022-11-25T05:56:10;4.90;;;3.50;;
1014;SDS011;8170;48.118;11.628;2022-11-25T05:57:31;3.40;;;3.05;;
1014;SDS011;8170;48.118;11.628;2022-11-25T05:58:43;3.10;;;2.80;;
1014;SDS011;8170;48.118;11.628;2022-11-25T05:59:46;2.95;;;2.45;;
1014;SDS011;8170;48.118;11.628;2022-11-25T06:01:15;3.20;;;2.80;;
1014;SDS011;8170;48.118;11.628;2022-11-25T06:02:21;5.22;;;2.72;;
1014;SDS011;8170;48.118;11.628;2022-11-25T06:03:24;3.67;;;3.30;;
1014;SDS011;8170;48.118;11.628;2022-11-25T06:04:29;2.80;;;2.42;;
1014;SDS011;8170;48.118;11.628;2022-11-25T06:05:33;3.97;;;2.75;;
1014;SDS011;8170;48.118;11.628;2022-11-25T06:06:36;2.78;;;2.47;;
1014;SDS011;8170;48.118;11.628;2022-11-25T06:07:39;3.88;;;3.55;;
1014;SDS011;8170;48.118;11.628;2022-11-25T06:08:41;6.65;;;4.35;;
1014;SDS011;8170;48.118;11.628;2022-11-25T06:09:45;3.50;;;2.92;;
1014;SDS011;8170;48.118;11.628;2022-11-25T06:10:47;5.82;;;3.83;;
1014;SDS011;8170;48.118;11.628;2022-11-25T06:11:50;4.35;;;3.35;;
1014;SDS011;8170;48.118;11.628;2022-11-25T06:12:54;7.50;;;3.60;;
1014;SDS011;8170;48.118;11.628;2022-11-25T06:13:56;4.85;;;4.00;;
1014;SDS011;8170;48.118;11.628;2022-11-25T06:14:59;6.07;;;4.20;;
1014;SDS011;8170;48.118;11.628;2022-11-25T06:16:05;5.50;;;3.50;;
1014;SDS011;8170;48.118;11.628;2022-11-25T06:17:09;4.45;;;3.75;;
1014;SDS011;8170;48.118;11.628;2022-11-25T06:18:21;6.43;;;4.40;;
1014;SDS011;8170;48.118;11.628;2022-11-25T06:19:24;5.75;;;4.53;;
1014;SDS011;8170;48.118;11.628;2022-11-25T06:20:27;5.65;;;4.05;;
1014;SDS011;8170;48.118;11.628;2022-11-25T06:21:29;5.00;;;4.05;;
1014;SDS011;8170;48.118;11.628;2022-11-25T06:22:33;4.45;;;3.85;;
1014;SDS011;8170;48.118;11.628;2022-11-25T06:23:35;7.35;;;4.65;;
1014;SDS011;8170;48.118;11.628;2022-11-25T06:24:38;4.30;;;3.90;;
1014;SDS011;8170;48.118;11.628;2022-11-25T06:25:41;4.93;;;3.75;;
1014;SDS011;8170;48.118;11.628;2022-11-25T06:26:44;5.05;;;3.83;;
1014;SDS011;8170;48.118;11.628;2022-11-25T06:27:46;4.35;;;3.47;;
1014;SDS011;8170;48.118;11.628;2022-11-25T06:29:09;3.90;;;3.50;;
1014;SDS011;8170;48.118;11.628;2022-11-25T06:30:16;4.40;;;3.88;;
1014;SDS011;8170;48.118;11.628;2022-11-25T06:31:26;4.20;;;3.67;;
1014;SDS011;8170;48.118;11.628;2022-11-25T06:32:40;4.00;;;3.53;;
1014;SDS011;8170;48.118;11.628;2022-11-25T06:33:55;4.63;;;3.90;;
1014;SDS011;8170;48.118;11.628;2022-11-25T06:34:58;5.32;;;3.13;;
1014;SDS011;8170;48.118;11.628;2022-11-25T06:36:07;4.35;;;3.30;;
1014;SDS011;8170;48.118;11.628;2022-11-25T06:37:13;3.20;;;2.75;;
1014;SDS011;8170;48.118;11.628;2022-11-25T06:38:15;3.80;;;3.05;;
1014;SDS011;8170;48.118;11.628;2022-11-25T06:39:19;4.95;;;2.80;;
1014;SDS011;8170;48.118;11.628;2022-11-25T06:40:22;2.95;;;2.53;;